sensor_id;sensor_type;location;lat;lon;timestamp;pressure;altitude;pressure_sealevel;temperature;humidity
22389;BME280;11362;48.102;11.620;2023-04-21T00:00:00;94832.69;;;20.55;33.41
22389;BME280;11362;48.102;11.620;2023-04-21T00:02:25;94819.66;;;20.55;33.50
22389;BME280;11362;48.102;11.620;2023-04-21T00:04:50;94816.16;;;20.55;33.33
22389;BME280;11362;48.102;11.620;2023-04-21T00:07:15;94816.16;;;20.55;33.40
22389;BME280;11362;48.102;11.620;2023-04-21T00:09:41;94810.63;;;20.55;33.36
22389;BME280;11362;48.102;11.620;2023-04-21T00:12:07;94804.31;;;20.54;33.44
22389;BME280;11362;48.102;11.620;2023-04-21T00:14:32;94798.44;;;20.52;33.38
22389;BME280;11362;48.102;11.620;2023-04-21T00:16:57;94798.03;;;20.54;33.38
22389;BME280;11362;48.102;11.620;2023-04-21T00:19:22;94810.63;;;20.55;33.49
22389;BME280;11362;48.102;11.620;2023-04-21T00:21:48;94802.34;;;20.55;33.55
22389;BME280;11362;48.102;11.620;2023-04-21T00:24:13;94801.19;;;20.52;33.49
22389;BME280;11362;48.102;11.620;2023-04-21T00:26:38;94803.53;;;20.54;33.49
22389;BME280;11362;48.102;11.620;2023-04-21T00:29:04;94804.34;;;20.51;33.57
22389;BME280;11362;48.102;11.620;2023-04-21T00:31:29;94806.72;;;20.52;33.26
22389;BME280;11362;48.102;11.620;2023-04-21T00:33:54;94800.00;;;20.53;33.34
22389;BME280;11362;48.102;11.620;2023-04-21T00:36:20;94802.75;;;20.53;33.48
22389;BME280;11362;48.102;11.620;2023-04-21T00:38:45;94790.16;;;20.52;33.40
22389;BME280;11362;48.102;11.620;2023-04-21T00:41:10;94790.91;;;20.53;33.39
22389;BME280;11362;48.102;11.620;2023-04-21T00:43:35;94793.69;;;20.53;33.45
22389;BME280;11362;48.102;11.620;2023-04-21T00:46:01;94791.72;;;20.53;33.51
22389;BME280;11362;48.102;11.620;2023-04-21T00:48:26;94791.72;;;20.53;33.36
22389;BME280;11362;48.102;11.620;2023-04-21T00:50:51;94788.16;;;20.53;33.43
22389;BME280;11362;48.102;11.620;2023-04-21T00:53:17;94786.19;;;20.53;33.35
22389;BME280;11362;48.102;11.620;2023-04-21T00:55:44;94788.16;;;20.53;33.34
22389;BME280;11362;48.102;11.620;2023-04-21T00:58:09;94793.28;;;20.54;33.52
22389;BME280;11362;48.102;11.620;2023-04-21T01:00:35;94787.00;;;20.54;33.39
22389;BME280;11362;48.102;11.620;2023-04-21T01:03:00;94779.13;;;20.52;33.61
22389;BME280;11362;48.102;11.620;2023-04-21T01:05:25;94769.66;;;20.53;33.50
22389;BME280;11362;48.102;11.620;2023-04-21T01:07:51;94782.25;;;20.54;33.62
22389;BME280;11362;48.102;11.620;2023-04-21T01:10:17;94779.13;;;20.52;33.50
22389;BME280;11362;48.102;11.620;2023-04-21T01:12:43;94763.31;;;20.53;33.40
22389;BME280;11362;48.102;11.620;2023-04-21T01:15:12;94766.09;;;20.53;33.38
22389;BME280;11362;48.102;11.620;2023-04-21T01:17:38;94781.06;;;20.52;33.46
22389;BME280;11362;48.102;11.620;2023-04-21T01:20:09;94765.31;;;20.52;33.37
22389;BME280;11362;48.102;11.620;2023-04-21T01:22:39;94767.28;;;20.52;33.52
22389;BME280;11362;48.102;11.620;2023-04-21T01:25:05;94766.09;;;20.53;33.50
22389;BME280;11362;48.102;11.620;2023-04-21T01:27:30;94778.72;;;20.54;33.56
22389;BME280;11362;48.102;11.620;2023-04-21T01:29:56;94776.34;;;20.52;33.51
22389;BME280;11362;48.102;11.620;2023-04-21T01:32:25;94773.59;;;20.52;33.36
22389;BME280;11362;48.102;11.620;2023-04-21T01:34:51;94774.38;;;20.53;33.38
22389;BME280;11362;48.102;11.620;2023-04-21T01:37:19;94768.84;;;20.53;33.24
22389;BME280;11362;48.102;11.620;2023-04-21T01:39:47;94781.88;;;20.52;33.45
22389;BME280;11362;48.102;11.620;2023-04-21T01:42:13;94784.63;;;20.52;33.40
22389;BME280;11362;48.102;11.620;2023-04-21T01:44:38;94785.41;;;20.53;33.42
22389;BME280;11362;48.102;11.620;2023-04-21T01:47:05;94793.69;;;20.53;33.54
22389;BME280;11362;48.102;11.620;2023-04-21T01:49:31;94797.22;;;20.53;33.48
22389;BME280;11362;48.102;11.620;2023-04-21T01:51:57;94781.88;;;20.52;33.25
22389;BME280;11362;48.102;11.620;2023-04-21T01:54:22;94781.47;;;20.54;33.36
22389;BME280;11362;48.102;11.620;2023-04-21T01:56:47;94780.69;;;20.53;33.30
22389;BME280;11362;48.102;11.620;2023-04-21T01:59:13;94776.34;;;20.52;33.46
22389;BME280;11362;48.102;11.620;2023-04-21T02:01:38;94777.91;;;20.53;33.66
22389;BME280;11362;48.102;11.620;2023-04-21T02:04:04;94784.22;;;20.54;33.42
22389;BME280;11362;48.102;11.620;2023-04-21T02:06:30;94778.31;;;20.52;33.52
22389;BME280;11362;48.102;11.620;2023-04-21T02:08:55;94785.41;;;20.53;33.35
22389;BME280;11362;48.102;11.620;2023-04-21T02:11:21;94779.88;;;20.53;33.51
22389;BME280;11362;48.102;11.620;2023-04-21T02:13:46;94779.88;;;20.53;33.38
22389;BME280;11362;48.102;11.620;2023-04-21T02:16:11;94782.63;;;20.53;33.36
22389;BME280;11362;48.102;11.620;2023-04-21T02:18:36;94778.31;;;20.52;33.68
22389;BME280;11362;48.102;11.620;2023-04-21T02:21:02;94777.13;;;20.53;33.49
22389;BME280;11362;48.102;11.620;2023-04-21T02:23:27;94766.53;;;20.51;33.46
22389;BME280;11362;48.102;11.620;2023-04-21T02:25:52;94768.84;;;20.53;33.40
22389;BME280;11362;48.102;11.620;2023-04-21T02:28:18;94761.78;;;20.52;33.43
22389;BME280;11362;48.102;11.620;2023-04-21T02:30:43;94763.31;;;20.53;33.38
22389;BME280;11362;48.102;11.620;2023-04-21T02:33:08;94762.16;;;20.54;33.32
22389;BME280;11362;48.102;11.620;2023-04-21T02:35:33;94763.72;;;20.55;33.44
22389;BME280;11362;48.102;11.620;2023-04-21T02:37:59;94753.09;;;20.53;33.39
22389;BME280;11362;48.102;11.620;2023-04-21T02:40:24;94738.50;;;20.53;33.51
22389;BME280;11362;48.102;11.620;2023-04-21T02:42:50;94748.78;;;20.52;33.46
22389;BME280;11362;48.102;11.620;2023-04-21T02:45:15;94750.34;;;20.53;33.51
22389;BME280;11362;48.102;11.620;2023-04-21T02:47:41;94739.28;;;20.53;33.41
22389;BME280;11362;48.102;11.620;2023-04-21T02:50:06;94740.09;;;20.54;33.42
22389;BME280;11362;48.102;11.620;2023-04-21T02:52:35;94746.00;;;20.52;33.55
22389;BME280;11362;48.102;11.620;2023-04-21T02:55:00;94746.78;;;20.53;33.68
22389;BME280;11362;48.102;11.620;2023-04-21T02:57:25;94739.69;;;20.52;33.35
22389;BME280;11362;48.102;11.620;2023-04-21T02:59:51;94750.72;;;20.52;33.55
22389;BME280;11362;48.102;11.620;2023-04-21T03:02:16;94750.72;;;20.52;33.49
22389;BME280;11362;48.102;11.620;2023-04-21T03:04:41;94748.78;;;20.52;33.47
22389;BME280;11362;48.102;11.620;2023-04-21T03:07:11;94752.28;;;20.53;33.34
22389;BME280;11362;48.102;11.620;2023-04-21T03:09:36;94751.13;;;20.54;33.47
22389;BME280;11362;48.102;11.620;2023-04-21T03:12:01;94753.88;;;20.54;33.45
22389;BME280;11362;48.102;11.620;2023-04-21T03:14:27;94742.47;;;20.52;33.31
22389;BME280;11362;48.102;11.620;2023-04-21T03:16:52;94744.84;;;20.50;33.58
22389;BME280;11362;48.102;11.620;2023-04-21T03:19:17;94749.16;;;20.51;33.46
22389;BME280;11362;48.102;11.620;2023-04-21T03:21:43;94742.88;;;20.50;33.58
22389;BME280;11362;48.102;11.620;2023-04-21T03:24:08;94757.44;;;20.51;33.55
22389;BME280;11362;48.102;11.620;2023-04-21T03:26:33;94753.13;;;20.50;33.57
22389;BME280;11362;48.102;11.620;2023-04-21T03:28:58;94750.75;;;20.48;33.49
22389;BME280;11362;48.102;11.620;2023-04-21T03:31:24;94747.59;;;20.50;33.37
22389;BME280;11362;48.102;11.620;2023-04-21T03:33:49;94753.13;;;20.50;33.54
22389;BME280;11362;48.102;11.620;2023-04-21T03:36:14;94736.56;;;20.50;33.54
22389;BME280;11362;48.102;11.620;2023-04-21T03:38:40;94732.25;;;20.49;33.55
22389;BME280;11362;48.102;11.620;2023-04-21T03:41:05;94731.44;;;20.48;33.45
22389;BME280;11362;48.102;11.620;2023-04-21T03:43:30;94736.97;;;20.48;33.55
22389;BME280;11362;48.102;11.620;2023-04-21T03:45:55;94747.59;;;20.50;33.54
22389;BME280;11362;48.102;11.620;2023-04-21T03:48:21;94751.16;;;20.50;33.62
22389;BME280;11362;48.102;11.620;2023-04-21T03:50:46;94754.31;;;20.49;33.35
22389;BME280;11362;48.102;11.620;2023-04-21T03:53:11;94752.31;;;20.49;33.52
22389;BME280;11362;48.102;11.620;2023-04-21T03:55:37;94757.84;;;20.49;33.34
22389;BME280;11362;48.102;11.620;2023-04-21T03:58:02;94753.91;;;20.50;33.39
22389;BME280;11362;48.102;11.620;2023-04-21T04:00:27;94748.81;;;20.49;33.78
22389;BME280;11362;48.102;11.620;2023-04-21T04:02:52;94753.13;;;20.50;33.64
22389;BME280;11362;48.102;11.620;2023-04-21T04:05:18;94735.78;;;20.49;33.43
22389;BME280;11362;48.102;11.620;2023-04-21T04:07:43;94744.84;;;20.50;33.46
22389;BME280;11362;48.102;11.620;2023-04-21T04:10:09;94740.53;;;20.49;33.73
22389;BME280;11362;48.102;11.620;2023-04-21T04:12:34;94737.78;;;20.49;33.30
22389;BME280;11362;48.102;11.620;2023-04-21T04:15:00;94748.41;;;20.50;33.53
22389;BME280;11362;48.102;11.620;2023-04-21T04:17:25;94768.13;;;20.49;33.46
22389;BME280;11362;48.102;11.620;2023-04-21T04:19:50;94762.59;;;20.49;33.41
22389;BME280;11362;48.102;11.620;2023-04-21T04:22:15;94754.31;;;20.49;33.47
22389;BME280;11362;48.102;11.620;2023-04-21T04:24:41;94759.84;;;20.49;33.52
22389;BME280;11362;48.102;11.620;2023-04-21T04:27:06;94754.31;;;20.49;33.60
22389;BME280;11362;48.102;11.620;2023-04-21T04:29:31;94755.09;;;20.49;33.40
22389;BME280;11362;48.102;11.620;2023-04-21T04:31:56;94747.59;;;20.50;33.55
22389;BME280;11362;48.102;11.620;2023-04-21T04:34:22;94750.75;;;20.48;33.42
22389;BME280;11362;48.102;11.620;2023-04-21T04:36:47;94747.59;;;20.50;33.60
22389;BME280;11362;48.102;11.620;2023-04-21T04:39:14;94753.13;;;20.50;33.44
22389;BME280;11362;48.102;11.620;2023-04-21T04:41:40;94755.88;;;20.50;33.49
22389;BME280;11362;48.102;11.620;2023-04-21T04:44:05;94758.66;;;20.50;33.42
22389;BME280;11362;48.102;11.620;2023-04-21T04:46:31;94758.66;;;20.50;33.44
22389;BME280;11362;48.102;11.620;2023-04-21T04:48:56;94753.13;;;20.50;33.53
22389;BME280;11362;48.102;11.620;2023-04-21T04:51:21;94766.53;;;20.51;33.43
22389;BME280;11362;48.102;11.620;2023-04-21T04:53:47;94760.59;;;20.49;33.71
22389;BME280;11362;48.102;11.620;2023-04-21T04:56:12;94761.41;;;20.50;33.41
22389;BME280;11362;48.102;11.620;2023-04-21T04:58:37;94771.63;;;20.49;33.43
22389;BME280;11362;48.102;11.620;2023-04-21T05:01:13;94764.97;;;20.50;33.53
22389;BME280;11362;48.102;11.620;2023-04-21T05:03:38;94764.16;;;20.50;33.40
22389;BME280;11362;48.102;11.620;2023-04-21T05:06:04;94768.13;;;20.49;33.51
22389;BME280;11362;48.102;11.620;2023-04-21T05:08:29;94777.59;;;20.48;33.38
22389;BME280;11362;48.102;11.620;2023-04-21T05:10:54;94778.34;;;20.48;33.37
22389;BME280;11362;48.102;11.620;2023-04-21T05:13:19;94787.78;;;20.51;33.40
22389;BME280;11362;48.102;11.620;2023-04-21T05:15:45;94779.13;;;20.52;33.43
22389;BME280;11362;48.102;11.620;2023-04-21T05:18:10;94778.75;;;20.50;33.60
22389;BME280;11362;48.102;11.620;2023-04-21T05:20:35;94778.31;;;20.52;33.25
22389;BME280;11362;48.102;11.620;2023-04-21T05:23:00;94782.28;;;20.51;33.46
22389;BME280;11362;48.102;11.620;2023-04-21T05:25:26;94788.94;;;20.53;33.32
22389;BME280;11362;48.102;11.620;2023-04-21T05:27:51;94793.69;;;20.53;33.51
22389;BME280;11362;48.102;11.620;2023-04-21T05:30:16;94788.59;;;20.51;33.44
22389;BME280;11362;48.102;11.620;2023-04-21T05:32:42;94791.72;;;20.53;33.35
22389;BME280;11362;48.102;11.620;2023-04-21T05:35:07;94781.47;;;20.54;33.32
22389;BME280;11362;48.102;11.620;2023-04-21T05:37:32;94792.91;;;20.52;33.34
22389;BME280;11362;48.102;11.620;2023-04-21T05:39:57;94796.44;;;20.53;33.41
22389;BME280;11362;48.102;11.620;2023-04-21T05:42:23;94790.91;;;20.53;33.45
22389;BME280;11362;48.102;11.620;2023-04-21T05:44:48;94780.31;;;20.51;33.29
22389;BME280;11362;48.102;11.620;2023-04-21T05:47:13;94794.47;;;20.53;33.63
22389;BME280;11362;48.102;11.620;2023-04-21T05:49:39;94784.22;;;20.54;33.35
22389;BME280;11362;48.102;11.620;2023-04-21T05:52:04;94787.00;;;20.54;33.35
22389;BME280;11362;48.102;11.620;2023-04-21T05:54:29;94775.97;;;20.54;33.25
22389;BME280;11362;48.102;11.620;2023-04-21T05:56:54;94775.56;;;20.52;33.41
22389;BME280;11362;48.102;11.620;2023-04-21T05:59:20;94779.13;;;20.52;33.48
22389;BME280;11362;48.102;11.620;2023-04-21T06:01:45;94776.72;;;20.54;33.34
22389;BME280;11362;48.102;11.620;2023-04-21T06:04:10;94773.97;;;20.54;33.36
22389;BME280;11362;48.102;11.620;2023-04-21T06:06:36;94765.69;;;20.54;33.40
22389;BME280;11362;48.102;11.620;2023-04-21T06:09:01;94766.47;;;20.55;33.38
22389;BME280;11362;48.102;11.620;2023-04-21T06:11:26;94777.09;;;20.56;33.53
22389;BME280;11362;48.102;11.620;2023-04-21T06:13:51;94774.75;;;20.55;33.37
22389;BME280;11362;48.102;11.620;2023-04-21T06:16:17;94785.78;;;20.55;33.28
22389;BME280;11362;48.102;11.620;2023-04-21T06:18:42;94779.09;;;20.56;33.47
22389;BME280;11362;48.102;11.620;2023-04-21T06:21:07;94772.75;;;20.55;33.52
22389;BME280;11362;48.102;11.620;2023-04-21T06:23:32;94772.75;;;20.55;33.38
22389;BME280;11362;48.102;11.620;2023-04-21T06:26:02;94772.38;;;20.57;33.54
22389;BME280;11362;48.102;11.620;2023-04-21T06:28:27;94768.81;;;20.56;33.46
22389;BME280;11362;48.102;11.620;2023-04-21T06:30:53;94759.78;;;20.56;33.47
22389;BME280;11362;48.102;11.620;2023-04-21T06:33:18;94766.84;;;20.57;33.30
22389;BME280;11362;48.102;11.620;2023-04-21T06:35:43;94757.78;;;20.56;33.59
22389;BME280;11362;48.102;11.620;2023-04-21T06:38:08;94759.38;;;20.57;33.29
22389;BME280;11362;48.102;11.620;2023-04-21T06:40:34;94768.41;;;20.58;33.29
22389;BME280;11362;48.102;11.620;2023-04-21T06:42:59;94764.47;;;20.59;33.40
22389;BME280;11362;48.102;11.620;2023-04-21T06:45:24;94766.44;;;20.58;33.38
22389;BME280;11362;48.102;11.620;2023-04-21T06:47:50;94763.69;;;20.58;33.48
22389;BME280;11362;48.102;11.620;2023-04-21T06:50:15;94764.09;;;20.57;33.37
22389;BME280;11362;48.102;11.620;2023-04-21T06:52:40;94771.16;;;20.58;33.41
22389;BME280;11362;48.102;11.620;2023-04-21T06:55:06;94765.66;;;20.58;33.48
22389;BME280;11362;48.102;11.620;2023-04-21T06:57:31;94761.34;;;20.57;33.54
22389;BME280;11362;48.102;11.620;2023-04-21T06:59:57;94769.59;;;20.57;33.52
22389;BME280;11362;48.102;11.620;2023-04-21T07:02:22;94758.56;;;20.57;33.38
22389;BME280;11362;48.102;11.620;2023-04-21T07:04:47;94764.09;;;20.57;33.41
22389;BME280;11362;48.102;11.620;2023-04-21T07:07:13;94765.69;;;20.54;33.54
22389;BME280;11362;48.102;11.620;2023-04-21T07:09:38;94770.00;;;20.55;33.48
22389;BME280;11362;48.102;11.620;2023-04-21T07:12:03;94764.88;;;20.57;33.47
22389;BME280;11362;48.102;11.620;2023-04-21T07:14:29;94755.44;;;20.55;33.50
22389;BME280;11362;48.102;11.620;2023-04-21T07:16:54;94762.91;;;20.58;33.35
22389;BME280;11362;48.102;11.620;2023-04-21T07:19:19;94750.66;;;20.59;33.48
22389;BME280;11362;48.102;11.620;2023-04-21T07:21:44;94746.34;;;20.58;33.48
22389;BME280;11362;48.102;11.620;2023-04-21T07:24:10;94749.91;;;20.58;33.46
22389;BME280;11362;48.102;11.620;2023-04-21T07:26:35;94738.06;;;20.58;33.58
22389;BME280;11362;48.102;11.620;2023-04-21T07:29:00;94749.09;;;20.58;33.41
22389;BME280;11362;48.102;11.620;2023-04-21T07:31:26;94746.34;;;20.58;33.38
22389;BME280;11362;48.102;11.620;2023-04-21T07:33:51;94749.91;;;20.58;33.36
22389;BME280;11362;48.102;11.620;2023-04-21T07:36:16;94745.13;;;20.59;33.56
22389;BME280;11362;48.102;11.620;2023-04-21T07:38:42;94745.94;;;20.59;33.48
22389;BME280;11362;48.102;11.620;2023-04-21T07:41:09;94741.19;;;20.60;33.52
22389;BME280;11362;48.102;11.620;2023-04-21T07:43:34;94752.22;;;20.60;33.56
22389;BME280;11362;48.102;11.620;2023-04-21T07:46:00;94749.47;;;20.60;33.56
22389;BME280;11362;48.102;11.620;2023-04-21T07:48:25;94753.03;;;20.60;33.32
22389;BME280;11362;48.102;11.620;2023-04-21T07:50:50;94758.53;;;20.60;33.48
22389;BME280;11362;48.102;11.620;2023-04-21T07:53:16;94756.97;;;20.59;33.69
22389;BME280;11362;48.102;11.620;2023-04-21T07:55:41;94758.16;;;20.58;33.44
22389;BME280;11362;48.102;11.620;2023-04-21T07:58:06;94756.56;;;20.61;33.51
22389;BME280;11362;48.102;11.620;2023-04-21T08:00:32;94758.13;;;20.62;33.53
22389;BME280;11362;48.102;11.620;2023-04-21T08:02:57;94752.63;;;20.62;33.50
22389;BME280;11362;48.102;11.620;2023-04-21T08:05:22;94759.69;;;20.63;33.42
22389;BME280;11362;48.102;11.620;2023-04-21T08:07:48;94760.91;;;20.62;33.47
22389;BME280;11362;48.102;11.620;2023-04-21T08:10:13;94754.94;;;20.63;33.74
22389;BME280;11362;48.102;11.620;2023-04-21T08:12:38;94759.69;;;20.63;33.70
22389;BME280;11362;48.102;11.620;2023-04-21T08:15:04;94765.22;;;20.63;33.67
22389;BME280;11362;48.102;11.620;2023-04-21T08:17:29;94760.50;;;20.60;33.79
22389;BME280;11362;48.102;11.620;2023-04-21T08:19:55;94764.41;;;20.62;33.66
22389;BME280;11362;48.102;11.620;2023-04-21T08:22:20;94767.97;;;20.63;33.65
22389;BME280;11362;48.102;11.620;2023-04-21T08:24:45;94766.38;;;20.65;33.55
22389;BME280;11362;48.102;11.620;2023-04-21T08:27:10;94765.59;;;20.65;33.51
22389;BME280;11362;48.102;11.620;2023-04-21T08:29:36;94767.16;;;20.66;33.54
22389;BME280;11362;48.102;11.620;2023-04-21T08:32:01;94760.84;;;20.65;33.71
22389;BME280;11362;48.102;11.620;2023-04-21T08:34:26;94794.75;;;20.66;33.57
22389;BME280;11362;48.102;11.620;2023-04-21T08:36:52;94765.94;;;20.67;33.74
22389;BME280;11362;48.102;11.620;2023-04-21T08:39:17;94764.78;;;20.68;33.85
22389;BME280;11362;48.102;11.620;2023-04-21T08:41:42;94764.75;;;20.71;33.65
22389;BME280;11362;48.102;11.620;2023-04-21T08:44:08;94763.94;;;20.71;33.87
22389;BME280;11362;48.102;11.620;2023-04-21T08:46:34;94767.50;;;20.71;33.69
22389;BME280;11362;48.102;11.620;2023-04-21T08:49:00;94766.72;;;20.71;33.73
22389;BME280;11362;48.102;11.620;2023-04-21T08:51:27;94767.06;;;20.73;33.79
22389;BME280;11362;48.102;11.620;2023-04-21T08:53:56;94761.19;;;20.71;34.02
22389;BME280;11362;48.102;11.620;2023-04-21T08:56:25;94761.56;;;20.73;34.03
22389;BME280;11362;48.102;11.620;2023-04-21T08:58:51;94758.78;;;20.73;33.95
22389;BME280;11362;48.102;11.620;2023-04-21T09:01:16;94760.00;;;20.72;34.18
22389;BME280;11362;48.102;11.620;2023-04-21T09:03:41;94756.44;;;20.75;33.94
22389;BME280;11362;48.102;11.620;2023-04-21T09:06:08;94761.50;;;20.76;34.04
22389;BME280;11362;48.102;11.620;2023-04-21T09:08:36;94759.19;;;20.75;34.13
22389;BME280;11362;48.102;11.620;2023-04-21T09:11:02;94749.72;;;20.76;34.25
22389;BME280;11362;48.102;11.620;2023-04-21T09:13:32;94744.59;;;20.74;34.20
22389;BME280;11362;48.102;11.620;2023-04-21T09:15:59;94748.91;;;20.75;34.05
22389;BME280;11362;48.102;11.620;2023-04-21T09:18:27;94741.84;;;20.74;34.31
22389;BME280;11362;48.102;11.620;2023-04-21T09:21:10;94747.34;;;20.74;34.18
22389;BME280;11362;48.102;11.620;2023-04-21T09:23:43;94749.28;;;20.77;34.24
22389;BME280;11362;48.102;11.620;2023-04-21T09:26:09;94746.50;;;20.77;34.27
22389;BME280;11362;48.102;11.620;2023-04-21T09:28:35;94740.22;;;20.77;34.31
22389;BME280;11362;48.102;11.620;2023-04-21T09:31:00;94748.88;;;20.79;34.16
22389;BME280;11362;48.102;11.620;2023-04-21T09:33:25;94749.66;;;20.79;34.41
22389;BME280;11362;48.102;11.620;2023-04-21T09:35:51;94739.81;;;20.78;34.31
22389;BME280;11362;48.102;11.620;2023-04-21T09:38:16;94744.91;;;20.80;34.56
22389;BME280;11362;48.102;11.620;2023-04-21T09:40:42;94746.91;;;20.79;34.22
22389;BME280;11362;48.102;11.620;2023-04-21T09:43:08;94747.69;;;20.80;34.08
22389;BME280;11362;48.102;11.620;2023-04-21T09:45:33;94742.59;;;20.78;34.24
22389;BME280;11362;48.102;11.620;2023-04-21T09:47:59;94745.34;;;20.78;34.39
22389;BME280;11362;48.102;11.620;2023-04-21T09:50:25;94741.38;;;20.79;34.52
22389;BME280;11362;48.102;11.620;2023-04-21T09:52:51;94740.97;;;20.81;34.55
22389;BME280;11362;48.102;11.620;2023-04-21T09:55:20;94735.44;;;20.81;34.36
22389;BME280;11362;48.102;11.620;2023-04-21T09:57:46;94740.19;;;20.80;34.61
22389;BME280;11362;48.102;11.620;2023-04-21T10:00:13;94743.72;;;20.81;34.33
22389;BME280;11362;48.102;11.620;2023-04-21T10:02:43;94749.22;;;20.81;34.57
22389;BME280;11362;48.102;11.620;2023-04-21T10:05:09;94744.91;;;20.80;34.56
22389;BME280;11362;48.102;11.620;2023-04-21T10:07:35;94746.47;;;20.81;34.49
22389;BME280;11362;48.102;11.620;2023-04-21T10:10:00;94747.28;;;20.81;34.44
22389;BME280;11362;48.102;11.620;2023-04-21T10:12:26;94735.44;;;20.81;34.48
22389;BME280;11362;48.102;11.620;2023-04-21T10:14:53;94731.47;;;20.82;34.59
22389;BME280;11362;48.102;11.620;2023-04-21T10:17:23;94726.75;;;20.82;34.56
22389;BME280;11362;48.102;11.620;2023-04-21T10:19:53;94719.25;;;20.83;34.62
22389;BME280;11362;48.102;11.620;2023-04-21T10:22:32;94715.72;;;20.82;34.48
22389;BME280;11362;48.102;11.620;2023-04-21T10:25:00;94718.06;;;20.84;34.63
22389;BME280;11362;48.102;11.620;2023-04-21T10:27:34;94724.00;;;20.82;34.42
22389;BME280;11362;48.102;11.620;2023-04-21T10:30:00;94720.03;;;20.83;34.57
22389;BME280;11362;48.102;11.620;2023-04-21T10:32:39;94715.72;;;20.82;34.66
22389;BME280;11362;48.102;11.620;2023-04-21T10:35:08;94710.97;;;20.83;34.58
22389;BME280;11362;48.102;11.620;2023-04-21T10:37:33;94706.22;;;20.83;34.68
22389;BME280;11362;48.102;11.620;2023-04-21T10:39:58;94706.22;;;20.83;34.57
22389;BME280;11362;48.102;11.620;2023-04-21T10:42:25;94705.47;;;20.83;34.63
22389;BME280;11362;48.102;11.620;2023-04-21T10:47:39;94695.19;;;20.83;34.59
22389;BME280;11362;48.102;11.620;2023-04-21T10:50:23;94713.31;;;20.84;34.59
22389;BME280;11362;48.102;11.620;2023-04-21T10:53:09;94703.06;;;20.85;34.55
22389;BME280;11362;48.102;11.620;2023-04-21T10:55:34;94704.63;;;20.86;34.50
22389;BME280;11362;48.102;11.620;2023-04-21T10:58:05;94701.88;;;20.86;34.67
22389;BME280;11362;48.102;11.620;2023-04-21T11:00:31;94694.38;;;20.86;34.68
22389;BME280;11362;48.102;11.620;2023-04-21T11:03:01;94688.06;;;20.86;34.70
22389;BME280;11362;48.102;11.620;2023-04-21T11:05:34;94690.81;;;20.86;34.67
22389;BME280;11362;48.102;11.620;2023-04-21T11:08:07;94688.06;;;20.86;34.72
22389;BME280;11362;48.102;11.620;2023-04-21T11:10:53;94689.66;;;20.87;34.75
22389;BME280;11362;48.102;11.620;2023-04-21T11:13:20;94688.06;;;20.86;34.84
22389;BME280;11362;48.102;11.620;2023-04-21T11:16:02;94685.69;;;20.88;34.68
22389;BME280;11362;48.102;11.620;2023-04-21T11:18:38;94684.13;;;20.87;34.71
22389;BME280;11362;48.102;11.620;2023-04-21T11:21:14;94678.63;;;20.87;34.72
22389;BME280;11362;48.102;11.620;2023-04-21T11:23:41;94683.34;;;20.86;34.87
22389;BME280;11362;48.102;11.620;2023-04-21T11:26:07;94669.53;;;20.86;35.18
22389;BME280;11362;48.102;11.620;2023-04-21T11:28:32;94662.06;;;20.87;35.01
22389;BME280;11362;48.102;11.620;2023-04-21T11:30:58;94664.41;;;20.88;34.84
22389;BME280;11362;48.102;11.620;2023-04-21T11:33:23;94670.69;;;20.89;34.86
22389;BME280;11362;48.102;11.620;2023-04-21T11:35:48;94668.38;;;20.87;34.83
22389;BME280;11362;48.102;11.620;2023-04-21T11:38:14;94664.81;;;20.87;34.65
22389;BME280;11362;48.102;11.620;2023-04-21T11:40:46;94666.78;;;20.86;34.95
22389;BME280;11362;48.102;11.620;2023-04-21T11:43:12;94673.91;;;20.84;35.00
22389;BME280;11362;48.102;11.620;2023-04-21T11:45:39;94658.09;;;20.84;35.22
22389;BME280;11362;48.102;11.620;2023-04-21T11:48:13;94663.63;;;20.84;34.92
22389;BME280;11362;48.102;11.620;2023-04-21T11:50:39;94661.66;;;20.85;34.88
22389;BME280;11362;48.102;11.620;2023-04-21T11:53:05;94663.63;;;20.84;35.08
22389;BME280;11362;48.102;11.620;2023-04-21T11:55:30;94665.97;;;20.86;35.16
22389;BME280;11362;48.102;11.620;2023-04-21T11:57:56;94665.63;;;20.84;35.06
22389;BME280;11362;48.102;11.620;2023-04-21T12:00:21;94664.44;;;20.85;35.22
22389;BME280;11362;48.102;11.620;2023-04-21T12:02:56;94667.94;;;20.85;35.20
22389;BME280;11362;48.102;11.620;2023-04-21T12:05:21;94672.72;;;20.85;35.23
22389;BME280;11362;48.102;11.620;2023-04-21T12:07:46;94674.66;;;20.84;35.22
22389;BME280;11362;48.102;11.620;2023-04-21T12:10:21;94677.03;;;20.86;35.11
22389;BME280;11362;48.102;11.620;2023-04-21T12:12:47;94669.94;;;20.85;35.17
22389;BME280;11362;48.102;11.620;2023-04-21T12:15:17;94671.50;;;20.86;35.05
22389;BME280;11362;48.102;11.620;2023-04-21T12:17:47;94673.47;;;20.85;35.01
22389;BME280;11362;48.102;11.620;2023-04-21T12:20:18;94663.22;;;20.86;35.34
22389;BME280;11362;48.102;11.620;2023-04-21T12:22:44;94669.94;;;20.85;35.21
22389;BME280;11362;48.102;11.620;2023-04-21T12:25:09;94670.72;;;20.85;35.27
22389;BME280;11362;48.102;11.620;2023-04-21T12:27:35;94675.06;;;20.86;35.35
22389;BME280;11362;48.102;11.620;2023-04-21T12:30:01;94672.31;;;20.86;35.21
22389;BME280;11362;48.102;11.620;2023-04-21T12:32:26;94680.19;;;20.88;35.39
22389;BME280;11362;48.102;11.620;2023-04-21T12:34:52;94669.94;;;20.88;35.12
22389;BME280;11362;48.102;11.620;2023-04-21T12:37:17;94681.75;;;20.89;35.31
22389;BME280;11362;48.102;11.620;2023-04-21T12:39:43;94681.75;;;20.89;35.31
22389;BME280;11362;48.102;11.620;2023-04-21T12:42:08;94678.22;;;20.88;35.12
22389;BME280;11362;48.102;11.620;2023-04-21T12:44:34;94680.56;;;20.90;35.26
22389;BME280;11362;48.102;11.620;2023-04-21T12:46:59;94675.41;;;20.92;35.23